createdAt,value
2023-02-05T00:00:27.951Z,4.30
2023-02-05T00:02:54.864Z,3.70
2023-02-05T00:05:21.837Z,5.30
2023-02-05T00:07:48.736Z,3.50
2023-02-05T00:10:16.706Z,4.17
2023-02-05T00:12:43.646Z,3.70
2023-02-05T00:15:10.831Z,4.27
2023-02-05T00:17:37.793Z,2.60
2023-02-05T00:20:05.932Z,3.17
2023-02-05T00:22:33.174Z,3.33
2023-02-05T00:25:00.135Z,3.07
2023-02-05T00:27:27.035Z,2.70
2023-02-05T00:29:53.869Z,2.73
2023-02-05T00:32:20.703Z,3.10
2023-02-05T00:34:47.580Z,2.57
2023-02-05T00:37:14.545Z,2.60
2023-02-05T00:39:41.418Z,3.03
2023-02-05T00:42:08.289Z,2.80
2023-02-05T00:44:35.246Z,2.43
2023-02-05T00:47:02.090Z,2.70
2023-02-05T00:49:29.034Z,2.80
2023-02-05T00:51:55.874Z,2.90
2023-02-05T00:54:23.332Z,2.43
2023-02-05T00:56:50.190Z,3.03
2023-02-05T00:59:17.044Z,2.93
2023-02-05T01:01:43.975Z,3.67
2023-02-05T01:04:10.870Z,2.40
2023-02-05T01:06:40.666Z,2.30
2023-02-05T01:09:07.552Z,3.37
2023-02-05T01:11:34.439Z,2.60
2023-02-05T01:14:01.325Z,3.07
2023-02-05T01:16:28.259Z,2.43
2023-02-05T01:18:56.834Z,2.47
2023-02-05T01:21:24.999Z,1.73
2023-02-05T01:23:52.253Z,2.33
2023-02-05T01:26:19.230Z,3.67
2023-02-05T01:28:46.223Z,2.10
2023-02-05T01:31:13.218Z,2.70
2023-02-05T01:33:40.151Z,3.20
2023-02-05T01:36:07.206Z,3.13
2023-02-05T01:38:34.130Z,2.47
2023-02-05T01:41:01.165Z,1.83
2023-02-05T01:43:28.349Z,2.10
2023-02-05T01:46:06.791Z,2.17
2023-02-05T01:48:42.549Z,2.77
2023-02-05T01:51:14.043Z,2.17
2023-02-05T01:53:41.635Z,1.83
2023-02-05T01:56:12.763Z,2.83
2023-02-05T01:58:51.939Z,2.43
2023-02-05T02:01:19.820Z,1.70
2023-02-05T02:03:48.125Z,2.00
2023-02-05T02:06:15.085Z,2.23
2023-02-05T02:08:42.091Z,2.77
2023-02-05T02:11:14.237Z,1.87
2023-02-05T02:13:41.582Z,2.27
2023-02-05T02:16:09.079Z,3.00
2023-02-05T02:18:38.414Z,2.20
2023-02-05T02:21:29.403Z,1.90
2023-02-05T02:23:59.467Z,2.13
2023-02-05T02:27:00.118Z,2.97
2023-02-05T02:29:37.783Z,2.47
2023-02-05T02:32:37.308Z,2.63
2023-02-05T02:35:10.876Z,2.67
2023-02-05T02:37:47.123Z,1.80
2023-02-05T02:40:26.172Z,2.23
2023-02-05T02:43:30.651Z,1.90
2023-02-05T02:46:12.183Z,2.40
2023-02-05T02:48:41.650Z,2.87
2023-02-05T02:51:11.442Z,3.63
2023-02-05T02:53:44.682Z,2.73
2023-02-05T02:56:13.710Z,2.70
2023-02-05T02:58:55.151Z,2.50
2023-02-05T03:01:28.494Z,2.33
2023-02-05T03:04:03.896Z,1.80
2023-02-05T03:06:32.784Z,1.80
2023-02-05T03:09:35.137Z,3.03
2023-02-05T03:12:02.753Z,2.73
2023-02-05T03:14:30.761Z,3.33
2023-02-05T03:16:59.617Z,2.40
2023-02-05T03:19:27.508Z,3.30
2023-02-05T03:22:02.139Z,3.07
2023-02-05T03:24:30.832Z,2.07
2023-02-05T03:26:58.433Z,2.63
2023-02-05T03:29:29.873Z,3.13
2023-02-05T03:32:18.854Z,2.33
2023-02-05T03:34:59.503Z,2.80
2023-02-05T03:37:45.463Z,2.17
2023-02-05T03:40:19.219Z,2.47
2023-02-05T03:43:16.217Z,2.57
2023-02-05T03:46:07.522Z,2.80
2023-02-05T03:49:00.544Z,2.27
2023-02-05T03:51:44.500Z,2.03
2023-02-05T03:54:30.606Z,1.90
2023-02-05T03:57:16.129Z,1.80
2023-02-05T03:59:46.097Z,2.33
2023-02-05T04:02:13.982Z,2.17
2023-02-05T04:04:43.567Z,2.80
2023-02-05T04:07:10.564Z,1.87
2023-02-05T04:09:38.518Z,1.43
2023-02-05T04:12:05.707Z,2.00
2023-02-05T04:14:33.834Z,2.33
2023-02-05T04:17:01.009Z,1.90
2023-02-05T04:19:28.081Z,1.70
2023-02-05T04:21:58.005Z,2.13
2023-02-05T04:24:25.388Z,2.90
2023-02-05T04:26:52.973Z,2.10
2023-02-05T04:29:20.588Z,3.13
2023-02-05T04:31:50.598Z,3.03
2023-02-05T04:34:17.525Z,1.97
2023-02-05T04:36:45.681Z,2.33
2023-02-05T04:39:12.945Z,2.53
2023-02-05T04:41:40.796Z,2.77
2023-02-05T04:44:07.698Z,3.20
2023-02-05T04:46:34.546Z,2.37
2023-02-05T04:49:01.554Z,2.10
2023-02-05T04:51:28.480Z,1.40
2023-02-05T04:53:55.437Z,1.80
2023-02-05T04:56:22.304Z,2.50
2023-02-05T04:58:49.186Z,2.50
2023-02-05T05:01:18.880Z,1.80
2023-02-05T05:03:46.420Z,1.80
2023-02-05T05:06:14.472Z,2.53
2023-02-05T05:08:42.000Z,1.70
2023-02-05T05:11:11.711Z,1.50
2023-02-05T05:13:39.246Z,2.37
2023-02-05T05:16:07.889Z,1.80
2023-02-05T05:18:35.270Z,2.20
2023-02-05T05:21:02.983Z,2.03
2023-02-05T05:23:30.634Z,2.77
2023-02-05T05:25:57.673Z,2.13
2023-02-05T05:28:24.702Z,2.00
2023-02-05T05:30:51.616Z,2.20
2023-02-05T05:33:18.508Z,2.17
2023-02-05T05:35:46.114Z,1.67
2023-02-05T05:38:12.993Z,1.43
2023-02-05T05:40:58.884Z,2.60
2023-02-05T05:43:44.301Z,2.57
2023-02-05T05:46:11.271Z,2.23
2023-02-05T05:48:38.139Z,2.13
2023-02-05T05:51:05.617Z,2.03
2023-02-05T05:53:32.871Z,1.93
2023-02-05T05:55:59.791Z,3.17
2023-02-05T05:58:26.681Z,2.23
2023-02-05T06:00:54.697Z,2.90
2023-02-05T06:03:22.309Z,4.60
2023-02-05T06:05:49.265Z,1.93
2023-02-05T06:08:16.484Z,2.40
2023-02-05T06:10:43.463Z,2.57
2023-02-05T06:13:10.592Z,2.00
2023-02-05T06:15:37.831Z,2.40
2023-02-05T06:18:05.021Z,2.63
2023-02-05T06:20:31.891Z,2.43
2023-02-05T06:22:58.695Z,2.67
2023-02-05T06:25:25.629Z,2.40
2023-02-05T06:27:52.628Z,1.77
2023-02-05T06:30:19.762Z,2.90
2023-02-05T06:32:46.655Z,5.00
2023-02-05T06:35:13.502Z,2.80
2023-02-05T06:37:47.979Z,3.73
2023-02-05T06:40:18.050Z,2.10
2023-02-05T06:42:45.653Z,2.40
2023-02-05T06:45:12.731Z,2.57
2023-02-05T06:47:39.910Z,1.97
2023-02-05T06:50:07.303Z,3.23
2023-02-05T06:52:34.254Z,1.63
2023-02-05T06:55:01.118Z,2.10
2023-02-05T06:57:28.126Z,2.20
2023-02-05T06:59:54.974Z,2.13
2023-02-05T07:02:21.854Z,3.50
2023-02-05T07:04:48.809Z,2.13
2023-02-05T07:07:16.833Z,1.90
2023-02-05T07:09:44.364Z,3.20
2023-02-05T07:12:11.415Z,3.57
2023-02-05T07:14:39.473Z,2.37
2023-02-05T07:17:07.569Z,3.27
2023-02-05T07:19:35.800Z,3.00
2023-02-05T07:22:02.621Z,2.80
2023-02-05T07:24:29.694Z,2.93
2023-02-05T07:26:56.503Z,3.70
2023-02-05T07:29:23.386Z,5.13
2023-02-05T07:31:51.212Z,5.33
2023-02-05T07:34:18.837Z,4.37
2023-02-05T07:36:45.735Z,5.23
2023-02-05T07:39:12.676Z,5.63
2023-02-05T07:41:39.539Z,4.63
2023-02-05T07:44:06.450Z,6.23
2023-02-05T07:46:33.458Z,7.30
2023-02-05T07:49:00.326Z,11.60
2023-02-05T07:51:27.437Z,6.77
2023-02-05T07:53:54.302Z,12.60
2023-02-05T07:56:25.792Z,7.03
2023-02-05T07:58:53.191Z,7.23
2023-02-05T08:01:20.121Z,6.93
2023-02-05T08:03:46.977Z,6.17
2023-02-05T08:06:15.495Z,5.10
2023-02-05T08:08:42.534Z,4.80
2023-02-05T08:11:16.177Z,5.43
2023-02-05T08:13:43.761Z,6.60
2023-02-05T08:16:11.489Z,3.33
2023-02-05T08:18:38.691Z,5.17
2023-02-05T08:21:05.740Z,4.50
2023-02-05T08:23:32.718Z,6.17
2023-02-05T08:25:59.971Z,3.93
2023-02-05T08:28:27.892Z,5.20
2023-02-05T08:30:56.643Z,3.23
2023-02-05T08:33:23.747Z,4.73
2023-02-05T08:35:50.606Z,5.60
2023-02-05T08:38:17.564Z,3.97
2023-02-05T08:40:44.465Z,4.43
2023-02-05T08:43:11.479Z,5.83
2023-02-05T08:45:39.172Z,4.87
2023-02-05T08:48:06.111Z,4.57
2023-02-05T08:50:33.000Z,4.23
2023-02-05T08:52:59.830Z,5.27
2023-02-05T08:55:26.688Z,5.93
2023-02-05T08:57:53.566Z,5.53
2023-02-05T09:00:21.562Z,6.03
2023-02-05T09:02:48.462Z,5.83
2023-02-05T09:05:15.330Z,5.83
2023-02-05T09:07:42.368Z,5.07
2023-02-05T09:10:11.719Z,8.43
2023-02-05T09:12:39.102Z,9.17
2023-02-05T09:15:07.612Z,8.23
2023-02-05T09:17:34.826Z,5.10
2023-02-05T09:20:01.869Z,6.13
2023-02-05T09:22:28.972Z,7.30
2023-02-05T09:24:55.848Z,11.83
2023-02-05T09:27:22.791Z,6.80
2023-02-05T09:29:49.659Z,6.33
2023-02-05T09:32:16.532Z,9.67
2023-02-05T09:34:43.421Z,8.43
2023-02-05T09:37:10.303Z,6.20
2023-02-05T09:42:45.328Z,7.53
2023-02-05T09:45:40.187Z,7.70
2023-02-05T09:48:23.064Z,7.27
2023-02-05T09:50:50.479Z,17.30
2023-02-05T09:53:21.414Z,8.90
2023-02-05T09:55:49.131Z,9.80
2023-02-05T09:58:24.257Z,7.50
2023-02-05T10:01:07.322Z,10.13
2023-02-05T10:03:50.843Z,10.63
2023-02-05T10:06:55.321Z,8.63
2023-02-05T10:09:49.375Z,7.73
2023-02-05T10:12:28.279Z,9.37
2023-02-05T10:15:07.848Z,10.90
2023-02-05T10:17:46.336Z,10.67
2023-02-05T10:20:13.097Z,10.17
2023-02-05T10:23:01.807Z,9.97
2023-02-05T10:25:50.304Z,18.20
2023-02-05T10:28:36.086Z,10.77
2023-02-05T10:31:25.932Z,16.53
2023-02-05T10:33:56.139Z,13.50
2023-02-05T10:36:25.888Z,12.33
2023-02-05T10:38:55.906Z,8.43
2023-02-05T10:41:39.576Z,8.00
2023-02-05T10:44:35.574Z,7.00
2023-02-05T10:47:12.366Z,12.20
2023-02-05T10:49:52.159Z,9.83
2023-02-05T10:52:19.152Z,6.70
2023-02-05T10:54:47.350Z,8.40
2023-02-05T10:57:17.743Z,8.30
2023-02-05T11:00:04.475Z,9.90
2023-02-05T11:02:52.230Z,7.77
2023-02-05T11:05:30.505Z,7.30
2023-02-05T11:07:58.624Z,12.17
2023-02-05T11:10:31.161Z,11.13
2023-02-05T11:13:05.314Z,8.93
2023-02-05T11:15:33.662Z,12.70
2023-02-05T11:18:04.628Z,10.53
2023-02-05T11:20:37.926Z,10.87
2023-02-05T11:23:19.082Z,13.30
2023-02-05T11:26:01.653Z,12.10
2023-02-05T11:28:35.758Z,8.77
2023-02-05T11:31:31.387Z,9.30
2023-02-05T11:34:24.953Z,11.23
2023-02-05T11:36:56.764Z,9.83
2023-02-05T11:39:37.302Z,12.00
2023-02-05T11:42:20.316Z,9.33
2023-02-05T11:44:52.146Z,6.97
2023-02-05T11:47:30.152Z,8.00
2023-02-05T11:49:58.592Z,7.80
2023-02-05T11:52:30.256Z,10.07
2023-02-05T11:54:57.287Z,7.87
2023-02-05T11:57:35.379Z,7.93
2023-02-05T12:00:08.101Z,11.77
2023-02-05T12:02:37.231Z,7.87
2023-02-05T12:05:21.341Z,8.43
2023-02-05T12:07:58.482Z,7.70
2023-02-05T12:10:38.044Z,6.57
2023-02-05T12:13:36.366Z,6.70
2023-02-05T12:16:35.617Z,5.97
2023-02-05T12:19:21.070Z,6.47
2023-02-05T12:21:53.504Z,6.17
2023-02-05T12:24:35.494Z,6.27
2023-02-05T12:27:32.361Z,5.40
2023-02-05T12:30:37.989Z,6.03
2023-02-05T12:33:30.310Z,6.50
2023-02-05T12:36:26.584Z,8.90
2023-02-05T12:39:03.586Z,6.33
2023-02-05T12:41:56.225Z,7.30
2023-02-05T12:44:48.062Z,9.37
2023-02-05T12:47:56.339Z,8.17
2023-02-05T12:50:34.369Z,9.33
2023-02-05T12:53:20.066Z,9.67
2023-02-05T12:56:08.189Z,7.83
2023-02-05T12:58:49.901Z,8.93
2023-02-05T13:01:28.832Z,11.10
2023-02-05T13:04:01.288Z,10.33
2023-02-05T13:06:37.095Z,7.30
2023-02-05T13:09:18.768Z,12.33
2023-02-05T13:11:57.178Z,16.17
2023-02-05T13:14:36.601Z,14.43
2023-02-05T13:17:11.627Z,10.50
2023-02-05T13:19:41.188Z,12.33
2023-02-05T13:22:38.382Z,13.63
2023-02-05T13:25:48.715Z,10.90
2023-02-05T13:28:42.873Z,12.50
2023-02-05T13:31:21.485Z,9.47
2023-02-05T13:33:49.364Z,9.63
2023-02-05T13:36:25.023Z,15.27
2023-02-05T13:39:34.294Z,12.23
2023-02-05T13:42:04.588Z,11.47
2023-02-05T13:44:55.711Z,13.97
2023-02-05T13:47:38.884Z,16.50
2023-02-05T13:50:44.476Z,12.40
2023-02-05T13:53:42.387Z,10.00
2023-02-05T13:56:34.914Z,12.47
2023-02-05T13:59:12.757Z,11.03
2023-02-05T14:01:44.775Z,12.77
2023-02-05T14:04:24.036Z,13.60
2023-02-05T14:07:04.665Z,8.40
2023-02-05T14:09:40.628Z,9.27
2023-02-05T14:12:11.157Z,12.83
2023-02-05T14:14:41.958Z,10.80
2023-02-05T14:17:27.662Z,10.30
2023-02-05T14:20:01.125Z,10.60
2023-02-05T14:22:44.052Z,14.60
2023-02-05T14:25:38.873Z,22.43
2023-02-05T14:28:08.899Z,19.73
2023-02-05T14:30:44.948Z,19.20
2023-02-05T14:33:27.211Z,22.20
2023-02-05T14:36:16.185Z,22.87
2023-02-05T14:38:51.129Z,16.73
2023-02-05T14:41:52.376Z,15.00
2023-02-05T14:44:28.184Z,8.73
2023-02-05T14:47:00.095Z,9.03
2023-02-05T14:49:33.043Z,10.60
2023-02-05T14:52:02.915Z,8.43
2023-02-05T14:54:38.059Z,8.43
2023-02-05T14:57:38.454Z,7.80
2023-02-05T15:00:21.779Z,8.53
2023-02-05T15:02:58.338Z,8.63
2023-02-05T15:05:37.865Z,9.07
2023-02-05T15:08:35.110Z,9.27
2023-02-05T15:11:17.172Z,8.37
2023-02-05T15:14:19.657Z,8.50
2023-02-05T15:16:47.814Z,6.93
2023-02-05T15:19:18.754Z,7.20
2023-02-05T15:21:52.058Z,7.13
2023-02-05T15:24:23.991Z,7.80
2023-02-05T15:27:13.192Z,6.10
2023-02-05T15:29:57.194Z,6.67
2023-02-05T15:32:36.195Z,5.73
2023-02-05T15:35:07.840Z,7.00
2023-02-05T15:37:48.429Z,7.03
2023-02-05T15:40:31.999Z,8.13
2023-02-05T15:43:15.092Z,9.07
2023-02-05T15:45:45.168Z,9.07
2023-02-05T15:48:17.170Z,7.00
2023-02-05T15:50:48.356Z,14.20
2023-02-05T15:53:37.422Z,11.80
2023-02-05T15:56:12.858Z,11.97
2023-02-05T15:58:45.800Z,8.33
2023-02-05T16:01:26.505Z,7.33
2023-02-05T16:03:53.378Z,8.87
2023-02-05T16:06:21.980Z,7.70
2023-02-05T16:08:52.428Z,7.83
2023-02-05T16:11:27.517Z,7.73
2023-02-05T16:14:07.579Z,7.57
2023-02-05T16:16:38.328Z,7.60
2023-02-05T16:19:09.768Z,10.67
2023-02-05T16:21:45.503Z,7.50
2023-02-05T16:24:25.869Z,8.40
2023-02-05T16:27:02.435Z,6.83
2023-02-05T16:29:47.613Z,7.07
2023-02-05T16:32:39.295Z,7.10
2023-02-05T16:35:15.538Z,5.97
2023-02-05T16:37:42.846Z,7.27
2023-02-05T16:40:12.267Z,8.33
2023-02-05T16:42:43.281Z,6.17
2023-02-05T16:45:10.354Z,6.60
2023-02-05T16:47:37.796Z,6.00
2023-02-05T16:50:37.730Z,7.63
2023-02-05T16:53:26.127Z,11.33
2023-02-05T16:55:58.435Z,17.70
2023-02-05T16:58:28.171Z,15.93
2023-02-05T17:00:58.296Z,16.07
2023-02-05T17:03:28.784Z,17.70
2023-02-05T17:06:00.420Z,15.90
2023-02-05T17:08:33.528Z,14.00
2023-02-05T17:11:06.760Z,17.63
2023-02-05T17:13:44.207Z,15.87
2023-02-05T17:16:25.926Z,12.23
2023-02-05T17:19:06.205Z,21.17
2023-02-05T17:21:34.997Z,29.73
2023-02-05T17:24:04.973Z,14.57
2023-02-05T17:26:35.235Z,15.33
2023-02-05T17:29:04.995Z,15.70
2023-02-05T17:31:38.418Z,19.57
2023-02-05T17:34:05.425Z,15.67
2023-02-05T17:36:32.528Z,21.40
2023-02-05T17:38:59.391Z,22.93
2023-02-05T17:41:46.820Z,17.73
2023-02-05T17:44:17.937Z,17.87
2023-02-05T17:46:46.515Z,18.47
2023-02-05T17:49:13.428Z,16.40
2023-02-05T17:51:42.834Z,20.37
2023-02-05T17:54:18.286Z,21.80
2023-02-05T17:56:48.269Z,17.07
2023-02-05T17:59:19.152Z,16.43
2023-02-05T18:01:47.221Z,16.17
2023-02-05T18:04:14.912Z,17.57
2023-02-05T18:06:42.983Z,12.93
2023-02-05T18:09:10.608Z,14.30
2023-02-05T18:11:37.541Z,15.17
2023-02-05T18:14:05.126Z,15.87
2023-02-05T18:16:32.485Z,16.60
2023-02-05T18:18:59.398Z,17.60
2023-02-05T18:21:26.330Z,19.23
2023-02-05T18:23:53.320Z,17.43
2023-02-05T18:26:20.584Z,15.83
2023-02-05T18:28:47.605Z,17.83
2023-02-05T18:31:15.026Z,15.67
2023-02-05T18:33:42.354Z,16.37
2023-02-05T18:36:12.348Z,25.07
2023-02-05T18:38:40.551Z,21.47
2023-02-05T18:41:21.820Z,20.70
2023-02-05T18:43:48.823Z,16.97
2023-02-05T18:46:17.859Z,17.77
2023-02-05T18:48:49.421Z,16.93
2023-02-05T18:51:19.377Z,18.17
2023-02-05T18:53:47.473Z,16.83
2023-02-05T18:56:23.094Z,16.13
2023-02-05T18:58:59.242Z,19.77
2023-02-05T19:01:26.943Z,20.20
2023-02-05T19:03:54.763Z,18.07
2023-02-05T19:06:22.292Z,16.77
2023-02-05T19:08:50.297Z,17.43
2023-02-05T19:11:22.930Z,20.37
2023-02-05T19:14:04.579Z,16.83
2023-02-05T19:16:33.235Z,17.60
2023-02-05T19:19:01.888Z,17.20
2023-02-05T19:21:30.765Z,18.30
2023-02-05T19:24:05.339Z,20.60
2023-02-05T19:26:34.541Z,19.10
2023-02-05T19:29:04.758Z,21.93
2023-02-05T19:31:33.541Z,20.27
2023-02-05T19:34:00.903Z,20.67
2023-02-05T19:36:28.930Z,21.60
2023-02-05T19:38:55.913Z,24.83
2023-02-05T19:41:26.209Z,19.37
2023-02-05T19:43:58.015Z,22.03
2023-02-05T19:46:27.897Z,24.60
2023-02-05T19:48:56.398Z,23.80
2023-02-05T19:51:23.295Z,23.70
2023-02-05T19:53:50.228Z,25.87
2023-02-05T19:56:22.302Z,25.70
2023-02-05T19:58:51.662Z,24.87
2023-02-05T20:01:24.920Z,21.87
2023-02-05T20:03:54.176Z,22.13
2023-02-05T20:06:22.967Z,25.93
2023-02-05T20:08:49.887Z,20.13
2023-02-05T20:11:17.900Z,20.83
2023-02-05T20:13:46.628Z,22.53
2023-02-05T20:16:16.548Z,19.67
2023-02-05T20:18:44.322Z,22.77
2023-02-05T20:21:16.955Z,22.57
2023-02-05T20:23:44.063Z,22.33
2023-02-05T20:26:11.925Z,20.87
2023-02-05T20:28:59.173Z,18.77
2023-02-05T20:31:34.941Z,22.73
2023-02-05T20:34:03.855Z,23.47
2023-02-05T20:36:32.021Z,27.77
2023-02-05T20:39:00.451Z,20.30
2023-02-05T20:41:28.106Z,22.67
2023-02-05T20:43:56.317Z,20.50
2023-02-05T20:46:24.069Z,22.47
2023-02-05T20:48:51.475Z,21.77
2023-02-05T20:51:20.625Z,21.43
2023-02-05T20:53:48.337Z,24.73
2023-02-05T20:56:17.840Z,24.33
2023-02-05T20:58:45.038Z,19.00
2023-02-05T21:01:16.095Z,21.97
2023-02-05T21:03:48.229Z,20.57
2023-02-05T21:06:15.923Z,21.50
2023-02-05T21:08:45.290Z,21.70
2023-02-05T21:11:15.780Z,22.17
2023-02-05T21:13:44.269Z,19.90
2023-02-05T21:16:12.226Z,20.87
2023-02-05T21:18:40.383Z,21.43
2023-02-05T21:21:14.196Z,18.70
2023-02-05T21:23:41.796Z,21.90
2023-02-05T21:26:16.852Z,18.30
2023-02-05T21:28:43.784Z,19.60
2023-02-05T21:31:10.784Z,18.30
2023-02-05T21:33:37.756Z,19.57
2023-02-05T21:36:06.651Z,20.33
2023-02-05T21:38:40.771Z,18.50
2023-02-05T21:41:09.738Z,21.07
2023-02-05T21:43:36.819Z,20.17
2023-02-05T21:46:05.759Z,18.77
2023-02-05T21:48:32.999Z,19.70
2023-02-05T21:51:00.294Z,18.40
2023-02-05T21:53:28.295Z,18.27
2023-02-05T21:55:55.390Z,17.20
2023-02-05T21:58:22.520Z,18.33
2023-02-05T22:00:49.472Z,16.00
2023-02-05T22:03:16.407Z,16.70
2023-02-05T22:05:43.308Z,16.77
2023-02-05T22:08:11.869Z,17.43
2023-02-05T22:10:38.954Z,18.00
2023-02-05T22:13:05.812Z,17.37
2023-02-05T22:15:33.232Z,18.77
2023-02-05T22:18:00.191Z,18.77
2023-02-05T22:20:27.064Z,18.93
2023-02-05T22:22:53.930Z,27.00
2023-02-05T22:25:20.888Z,20.90
2023-02-05T22:27:47.722Z,25.63
2023-02-05T22:30:14.737Z,26.17
2023-02-05T22:32:41.570Z,24.87
2023-02-05T22:35:08.606Z,24.17
2023-02-05T22:37:35.435Z,26.90
2023-02-05T22:40:02.297Z,25.07
2023-02-05T22:42:29.540Z,23.50
2023-02-05T22:44:56.397Z,26.57
2023-02-05T22:47:24.141Z,26.00
2023-02-05T22:49:50.999Z,23.57
2023-02-05T22:52:17.886Z,22.93
2023-02-05T22:54:44.699Z,23.13
2023-02-05T22:57:11.666Z,22.97
2023-02-05T22:59:38.541Z,20.83
2023-02-05T23:02:05.502Z,22.07
2023-02-05T23:04:32.349Z,20.93
2023-02-05T23:06:59.268Z,21.40
2023-02-05T23:09:26.286Z,23.23
2023-02-05T23:11:54.918Z,22.87
2023-02-05T23:14:22.046Z,21.10
2023-02-05T23:16:48.961Z,17.67
2023-02-05T23:19:18.996Z,20.50
2023-02-05T23:21:47.219Z,18.50
2023-02-05T23:24:14.976Z,17.17
2023-02-05T23:26:45.177Z,15.67
2023-02-05T23:29:14.201Z,16.03
2023-02-05T23:31:41.878Z,18.67
2023-02-05T23:34:09.282Z,16.70
2023-02-05T23:36:36.338Z,16.60
2023-02-05T23:39:03.862Z,16.77
2023-02-05T23:41:36.728Z,15.40
2023-02-05T23:44:18.699Z,16.00
2023-02-05T23:46:47.627Z,14.57
2023-02-05T23:49:15.270Z,15.10
2023-02-05T23:51:42.526Z,15.87
2023-02-05T23:54:11.108Z,16.27
2023-02-05T23:56:38.029Z,17.00
2023-02-05T23:59:06.836Z,17.33
